sensor_id;sensor_type;location;lat;lon;timestamp;P1;durP1;ratioP1;P2;durP2;ratioP2
4808;SDS011;2418;49.930;8.606;2023-08-24T00:00:50;6.90;;;6.40;;
4808;SDS011;2418;49.930;8.606;2023-08-24T00:03:16;6.20;;;5.75;;
4808;SDS011;2418;49.930;8.606;2023-08-24T00:05:43;8.60;;;6.40;;
4808;SDS011;2418;49.930;8.606;2023-08-24T00:08:09;8.68;;;6.22;;
4808;SDS011;2418;49.930;8.606;2023-08-24T00:10:35;6.95;;;6.53;;
4808;SDS011;2418;49.930;8.606;2023-08-24T00:13:02;6.78;;;6.28;;
4808;SDS011;2418;49.930;8.606;2023-08-24T00:15:29;6.63;;;6.03;;
4808;SDS011;2418;49.930;8.606;2023-08-24T00:17:55;6.63;;;6.03;;
4808;SDS011;2418;49.930;8.606;2023-08-24T00:20:21;6.53;;;5.70;;
4808;SDS011;2418;49.930;8.606;2023-08-24T00:22:48;6.40;;;5.90;;
4808;SDS011;2418;49.930;8.606;2023-08-24T00:25:16;7.97;;;7.25;;
4808;SDS011;2418;49.930;8.606;2023-08-24T00:27:43;6.60;;;6.30;;
4808;SDS011;2418;49.930;8.606;2023-08-24T00:30:10;6.30;;;5.90;;
4808;SDS011;2418;49.930;8.606;2023-08-24T00:32:36;6.70;;;6.20;;
4808;SDS011;2418;49.930;8.606;2023-08-24T00:35:02;7.07;;;6.43;;
4808;SDS011;2418;49.930;8.606;2023-08-24T00:37:29;6.50;;;6.10;;
4808;SDS011;2418;49.930;8.606;2023-08-24T00:39:55;6.85;;;6.25;;
4808;SDS011;2418;49.930;8.606;2023-08-24T00:42:21;6.50;;;6.00;;
4808;SDS011;2418;49.930;8.606;2023-08-24T00:44:48;6.93;;;6.32;;
4808;SDS011;2418;49.930;8.606;2023-08-24T00:47:14;7.40;;;6.70;;
4808;SDS011;2418;49.930;8.606;2023-08-24T00:49:41;8.85;;;7.05;;
4808;SDS011;2418;49.930;8.606;2023-08-24T00:52:07;7.97;;;7.25;;
4808;SDS011;2418;49.930;8.606;2023-08-24T00:54:33;8.25;;;6.82;;
4808;SDS011;2418;49.930;8.606;2023-08-24T00:57:00;7.75;;;6.97;;
4808;SDS011;2418;49.930;8.606;2023-08-24T00:59:26;7.47;;;6.80;;
4808;SDS011;2418;49.930;8.606;2023-08-24T01:01:52;7.57;;;6.85;;
4808;SDS011;2418;49.930;8.606;2023-08-24T01:04:19;8.80;;;6.65;;
4808;SDS011;2418;49.930;8.606;2023-08-24T01:06:46;7.22;;;6.63;;
4808;SDS011;2418;49.930;8.606;2023-08-24T01:09:12;7.53;;;6.75;;
4808;SDS011;2418;49.930;8.606;2023-08-24T01:16:51;7.40;;;6.70;;
4808;SDS011;2418;49.930;8.606;2023-08-24T01:19:42;9.10;;;6.75;;
4808;SDS011;2418;49.930;8.606;2023-08-24T01:24:46;10.18;;;7.05;;
4808;SDS011;2418;49.930;8.606;2023-08-24T01:27:13;8.27;;;6.70;;
4808;SDS011;2418;49.930;8.606;2023-08-24T01:29:40;7.65;;;7.05;;
4808;SDS011;2418;49.930;8.606;2023-08-24T01:32:10;10.27;;;7.32;;
4808;SDS011;2418;49.930;8.606;2023-08-24T01:34:37;7.95;;;7.35;;
4808;SDS011;2418;49.930;8.606;2023-08-24T01:37:04;9.37;;;8.10;;
4808;SDS011;2418;49.930;8.606;2023-08-24T01:39:40;8.10;;;7.60;;
4808;SDS011;2418;49.930;8.606;2023-08-24T01:42:09;8.13;;;7.43;;
4808;SDS011;2418;49.930;8.606;2023-08-24T01:44:37;9.80;;;8.38;;
4808;SDS011;2418;49.930;8.606;2023-08-24T01:47:05;8.88;;;8.05;;
4808;SDS011;2418;49.930;8.606;2023-08-24T01:49:34;11.20;;;9.27;;
4808;SDS011;2418;49.930;8.606;2023-08-24T01:52:00;9.95;;;9.10;;
4808;SDS011;2418;49.930;8.606;2023-08-24T01:54:27;10.45;;;8.65;;
4808;SDS011;2418;49.930;8.606;2023-08-24T01:56:53;9.57;;;8.63;;
4808;SDS011;2418;49.930;8.606;2023-08-24T01:59:19;9.80;;;8.90;;
4808;SDS011;2418;49.930;8.606;2023-08-24T02:01:45;10.20;;;9.20;;
4808;SDS011;2418;49.930;8.606;2023-08-24T02:04:11;15.63;;;10.80;;
4808;SDS011;2418;49.930;8.606;2023-08-24T02:06:37;10.80;;;9.80;;
4808;SDS011;2418;49.930;8.606;2023-08-24T02:09:03;10.40;;;9.50;;
4808;SDS011;2418;49.930;8.606;2023-08-24T02:11:29;11.47;;;9.60;;
4808;SDS011;2418;49.930;8.606;2023-08-24T02:13:55;12.00;;;9.68;;
4808;SDS011;2418;49.930;8.606;2023-08-24T02:16:22;10.98;;;10.02;;
4808;SDS011;2418;49.930;8.606;2023-08-24T02:18:48;10.70;;;9.80;;
4808;SDS011;2418;49.930;8.606;2023-08-24T02:21:14;9.90;;;9.07;;
4808;SDS011;2418;49.930;8.606;2023-08-24T02:23:41;10.27;;;9.48;;
4808;SDS011;2418;49.930;8.606;2023-08-24T02:26:07;9.93;;;9.10;;
4808;SDS011;2418;49.930;8.606;2023-08-24T02:28:34;14.35;;;9.48;;
4808;SDS011;2418;49.930;8.606;2023-08-24T02:31:00;9.98;;;9.15;;
4808;SDS011;2418;49.930;8.606;2023-08-24T02:33:27;10.57;;;9.57;;
4808;SDS011;2418;49.930;8.606;2023-08-24T02:35:53;9.88;;;8.95;;
4808;SDS011;2418;49.930;8.606;2023-08-24T02:38:19;11.67;;;8.50;;
4808;SDS011;2418;49.930;8.606;2023-08-24T02:40:45;10.77;;;8.60;;
4808;SDS011;2418;49.930;8.606;2023-08-24T02:43:11;10.43;;;9.43;;
4808;SDS011;2418;49.930;8.606;2023-08-24T02:45:37;11.05;;;8.80;;
4808;SDS011;2418;49.930;8.606;2023-08-24T02:48:03;9.50;;;8.50;;
4808;SDS011;2418;49.930;8.606;2023-08-24T02:50:30;8.90;;;8.30;;
4808;SDS011;2418;49.930;8.606;2023-08-24T02:52:56;8.80;;;8.10;;
4808;SDS011;2418;49.930;8.606;2023-08-24T02:55:23;9.40;;;8.60;;
4808;SDS011;2418;49.930;8.606;2023-08-24T02:57:51;8.95;;;8.35;;
4808;SDS011;2418;49.930;8.606;2023-08-24T03:00:17;10.23;;;9.07;;
4808;SDS011;2418;49.930;8.606;2023-08-24T03:02:43;9.43;;;8.52;;
4808;SDS011;2418;49.930;8.606;2023-08-24T03:05:09;10.82;;;9.73;;
4808;SDS011;2418;49.930;8.606;2023-08-24T03:07:35;10.00;;;9.00;;
4808;SDS011;2418;49.930;8.606;2023-08-24T03:10:01;13.52;;;9.20;;
4808;SDS011;2418;49.930;8.606;2023-08-24T03:12:27;10.30;;;9.30;;
4808;SDS011;2418;49.930;8.606;2023-08-24T03:14:53;10.38;;;9.45;;
4808;SDS011;2418;49.930;8.606;2023-08-24T03:17:19;11.10;;;9.90;;
4808;SDS011;2418;49.930;8.606;2023-08-24T03:19:45;10.07;;;9.18;;
4808;SDS011;2418;49.930;8.606;2023-08-24T03:22:11;10.80;;;9.80;;
4808;SDS011;2418;49.930;8.606;2023-08-24T03:24:37;11.68;;;10.45;;
4808;SDS011;2418;49.930;8.606;2023-08-24T03:27:03;10.68;;;9.65;;
4808;SDS011;2418;49.930;8.606;2023-08-24T03:29:29;10.75;;;9.75;;
4808;SDS011;2418;49.930;8.606;2023-08-24T03:31:56;15.95;;;10.57;;
4808;SDS011;2418;49.930;8.606;2023-08-24T03:34:22;10.63;;;9.75;;
4808;SDS011;2418;49.930;8.606;2023-08-24T03:36:49;10.07;;;9.00;;
4808;SDS011;2418;49.930;8.606;2023-08-24T03:39:16;10.50;;;9.38;;
4808;SDS011;2418;49.930;8.606;2023-08-24T03:41:41;11.90;;;10.77;;
4808;SDS011;2418;49.930;8.606;2023-08-24T03:44:07;11.98;;;10.13;;
4808;SDS011;2418;49.930;8.606;2023-08-24T03:46:34;11.40;;;10.50;;
4808;SDS011;2418;49.930;8.606;2023-08-24T03:49:00;13.00;;;11.57;;
4808;SDS011;2418;49.930;8.606;2023-08-24T03:51:26;21.00;;;11.30;;
4808;SDS011;2418;49.930;8.606;2023-08-24T03:53:52;11.80;;;10.60;;
4808;SDS011;2418;49.930;8.606;2023-08-24T03:56:18;12.75;;;11.65;;
4808;SDS011;2418;49.930;8.606;2023-08-24T03:58:44;13.43;;;10.40;;
4808;SDS011;2418;49.930;8.606;2023-08-24T04:01:10;12.80;;;10.50;;
4808;SDS011;2418;49.930;8.606;2023-08-24T04:03:37;11.60;;;10.60;;
4808;SDS011;2418;49.930;8.606;2023-08-24T04:06:02;10.60;;;9.60;;
4808;SDS011;2418;49.930;8.606;2023-08-24T04:08:28;11.30;;;10.20;;
4808;SDS011;2418;49.930;8.606;2023-08-24T04:10:54;11.32;;;10.35;;
4808;SDS011;2418;49.930;8.606;2023-08-24T04:13:20;10.27;;;9.48;;
4808;SDS011;2418;49.930;8.606;2023-08-24T04:15:46;11.82;;;10.57;;
4808;SDS011;2418;49.930;8.606;2023-08-24T04:18:12;10.85;;;8.95;;
4808;SDS011;2418;49.930;8.606;2023-08-24T04:20:38;9.70;;;9.00;;
4808;SDS011;2418;49.930;8.606;2023-08-24T04:23:04;9.98;;;9.27;;
4808;SDS011;2418;49.930;8.606;2023-08-24T04:25:30;11.45;;;9.18;;
4808;SDS011;2418;49.930;8.606;2023-08-24T04:27:56;8.80;;;8.20;;
4808;SDS011;2418;49.930;8.606;2023-08-24T04:30:22;10.65;;;9.30;;
4808;SDS011;2418;49.930;8.606;2023-08-24T04:32:49;9.60;;;8.70;;
4808;SDS011;2418;49.930;8.606;2023-08-24T04:35:16;8.93;;;8.23;;
4808;SDS011;2418;49.930;8.606;2023-08-24T04:37:42;9.55;;;8.60;;
4808;SDS011;2418;49.930;8.606;2023-08-24T04:40:08;9.40;;;8.68;;
4808;SDS011;2418;49.930;8.606;2023-08-24T04:42:34;10.30;;;8.90;;
4808;SDS011;2418;49.930;8.606;2023-08-24T04:45:01;10.38;;;8.40;;
4808;SDS011;2418;49.930;8.606;2023-08-24T04:47:27;9.75;;;8.80;;
4808;SDS011;2418;49.930;8.606;2023-08-24T04:49:53;10.13;;;9.13;;
4808;SDS011;2418;49.930;8.606;2023-08-24T04:52:21;8.90;;;8.00;;
4808;SDS011;2418;49.930;8.606;2023-08-24T04:54:47;9.10;;;8.25;;
4808;SDS011;2418;49.930;8.606;2023-08-24T04:57:13;12.18;;;8.20;;
4808;SDS011;2418;49.930;8.606;2023-08-24T04:59:39;8.90;;;8.20;;
4808;SDS011;2418;49.930;8.606;2023-08-24T05:02:05;11.02;;;7.05;;
4808;SDS011;2418;49.930;8.606;2023-08-24T05:04:31;8.80;;;8.10;;
4808;SDS011;2418;49.930;8.606;2023-08-24T05:06:58;8.20;;;7.50;;
4808;SDS011;2418;49.930;8.606;2023-08-24T05:09:24;8.35;;;7.68;;
4808;SDS011;2418;49.930;8.606;2023-08-24T05:11:50;8.40;;;7.63;;
4808;SDS011;2418;49.930;8.606;2023-08-24T05:14:16;8.50;;;7.80;;
4808;SDS011;2418;49.930;8.606;2023-08-24T05:16:43;8.80;;;7.70;;
4808;SDS011;2418;49.930;8.606;2023-08-24T05:19:09;12.13;;;7.70;;
4808;SDS011;2418;49.930;8.606;2023-08-24T05:21:36;9.00;;;7.82;;
4808;SDS011;2418;49.930;8.606;2023-08-24T05:24:02;8.05;;;7.35;;
4808;SDS011;2418;49.930;8.606;2023-08-24T05:26:29;12.40;;;7.28;;
4808;SDS011;2418;49.930;8.606;2023-08-24T05:28:55;10.73;;;8.82;;
4808;SDS011;2418;49.930;8.606;2023-08-24T05:31:21;9.90;;;7.60;;
4808;SDS011;2418;49.930;8.606;2023-08-24T05:33:47;12.25;;;7.85;;
4808;SDS011;2418;49.930;8.606;2023-08-24T05:36:13;9.45;;;6.90;;
4808;SDS011;2418;49.930;8.606;2023-08-24T05:38:39;7.70;;;6.90;;
4808;SDS011;2418;49.930;8.606;2023-08-24T05:41:11;7.13;;;6.72;;
4808;SDS011;2418;49.930;8.606;2023-08-24T05:43:37;6.80;;;6.13;;
4808;SDS011;2418;49.930;8.606;2023-08-24T05:46:03;11.43;;;6.05;;
4808;SDS011;2418;49.930;8.606;2023-08-24T05:48:29;6.23;;;5.83;;
4808;SDS011;2418;49.930;8.606;2023-08-24T05:50:56;5.80;;;5.40;;
4808;SDS011;2418;49.930;8.606;2023-08-24T05:53:22;7.40;;;5.60;;
4808;SDS011;2418;49.930;8.606;2023-08-24T05:55:48;6.63;;;5.70;;
4808;SDS011;2418;49.930;8.606;2023-08-24T05:58:14;17.25;;;6.13;;
4808;SDS011;2418;49.930;8.606;2023-08-24T06:00:40;12.27;;;6.50;;
4808;SDS011;2418;49.930;8.606;2023-08-24T06:03:06;11.00;;;5.50;;
4808;SDS011;2418;49.930;8.606;2023-08-24T06:05:32;16.02;;;6.00;;
4808;SDS011;2418;49.930;8.606;2023-08-24T06:07:58;5.18;;;4.78;;
4808;SDS011;2418;49.930;8.606;2023-08-24T06:10:25;5.28;;;4.60;;
4808;SDS011;2418;49.930;8.606;2023-08-24T06:12:52;7.28;;;5.30;;
4808;SDS011;2418;49.930;8.606;2023-08-24T06:15:18;9.80;;;5.32;;
4808;SDS011;2418;49.930;8.606;2023-08-24T06:17:44;9.50;;;4.88;;
4808;SDS011;2418;49.930;8.606;2023-08-24T06:20:12;6.60;;;4.15;;
4808;SDS011;2418;49.930;8.606;2023-08-24T06:22:38;4.05;;;3.83;;
4808;SDS011;2418;49.930;8.606;2023-08-24T06:25:04;4.28;;;3.97;;
4808;SDS011;2418;49.930;8.606;2023-08-24T06:27:33;7.40;;;4.15;;
4808;SDS011;2418;49.930;8.606;2023-08-24T06:30:01;6.68;;;4.50;;
4808;SDS011;2418;49.930;8.606;2023-08-24T06:32:28;6.80;;;4.60;;
4808;SDS011;2418;49.930;8.606;2023-08-24T06:34:54;10.90;;;4.97;;
4808;SDS011;2418;49.930;8.606;2023-08-24T06:37:21;5.00;;;4.40;;
4808;SDS011;2418;49.930;8.606;2023-08-24T06:39:47;4.25;;;3.95;;
4808;SDS011;2418;49.930;8.606;2023-08-24T06:42:13;15.50;;;5.07;;
4808;SDS011;2418;49.930;8.606;2023-08-24T06:44:39;6.60;;;4.10;;
4808;SDS011;2418;49.930;8.606;2023-08-24T06:47:05;5.35;;;4.85;;
4808;SDS011;2418;49.930;8.606;2023-08-24T06:49:31;5.78;;;4.35;;
4808;SDS011;2418;49.930;8.606;2023-08-24T06:51:57;9.60;;;4.72;;
4808;SDS011;2418;49.930;8.606;2023-08-24T06:54:23;7.33;;;4.30;;
4808;SDS011;2418;49.930;8.606;2023-08-24T06:56:49;4.50;;;4.30;;
4808;SDS011;2418;49.930;8.606;2023-08-24T06:59:15;4.28;;;3.97;;
4808;SDS011;2418;49.930;8.606;2023-08-24T07:01:41;4.50;;;4.20;;
4808;SDS011;2418;49.930;8.606;2023-08-24T07:04:07;6.65;;;4.20;;
4808;SDS011;2418;49.930;8.606;2023-08-24T07:06:33;9.65;;;4.30;;
4808;SDS011;2418;49.930;8.606;2023-08-24T07:09:00;4.90;;;4.40;;
4808;SDS011;2418;49.930;8.606;2023-08-24T07:11:31;4.50;;;4.20;;
4808;SDS011;2418;49.930;8.606;2023-08-24T07:13:57;4.77;;;4.37;;
4808;SDS011;2418;49.930;8.606;2023-08-24T07:16:23;4.38;;;4.10;;
4808;SDS011;2418;49.930;8.606;2023-08-24T07:18:49;4.60;;;4.40;;
4808;SDS011;2418;49.930;8.606;2023-08-24T07:21:15;5.18;;;4.70;;
4808;SDS011;2418;49.930;8.606;2023-08-24T07:23:43;4.35;;;4.05;;
4808;SDS011;2418;49.930;8.606;2023-08-24T07:26:09;4.05;;;3.63;;
4808;SDS011;2418;49.930;8.606;2023-08-24T07:28:35;5.78;;;4.43;;
4808;SDS011;2418;49.930;8.606;2023-08-24T07:31:08;3.90;;;3.60;;
4808;SDS011;2418;49.930;8.606;2023-08-24T07:33:35;4.40;;;3.53;;
4808;SDS011;2418;49.930;8.606;2023-08-24T07:36:03;4.00;;;3.70;;
4808;SDS011;2418;49.930;8.606;2023-08-24T07:38:29;3.70;;;3.40;;
4808;SDS011;2418;49.930;8.606;2023-08-24T07:40:56;3.70;;;3.60;;
4808;SDS011;2418;49.930;8.606;2023-08-24T07:43:23;3.33;;;3.22;;
4808;SDS011;2418;49.930;8.606;2023-08-24T07:45:50;5.65;;;3.10;;
4808;SDS011;2418;49.930;8.606;2023-08-24T07:48:18;3.35;;;3.25;;
4808;SDS011;2418;49.930;8.606;2023-08-24T07:50:44;3.85;;;2.88;;
4808;SDS011;2418;49.930;8.606;2023-08-24T07:53:10;3.58;;;3.38;;
4808;SDS011;2418;49.930;8.606;2023-08-24T07:55:36;4.07;;;3.60;;
4808;SDS011;2418;49.930;8.606;2023-08-24T07:58:02;3.65;;;3.17;;
4808;SDS011;2418;49.930;8.606;2023-08-24T08:00:29;5.50;;;2.90;;
4808;SDS011;2418;49.930;8.606;2023-08-24T08:02:55;5.20;;;3.10;;
4808;SDS011;2418;49.930;8.606;2023-08-24T08:05:21;6.38;;;3.28;;
4808;SDS011;2418;49.930;8.606;2023-08-24T08:07:47;4.55;;;3.35;;
4808;SDS011;2418;49.930;8.606;2023-08-24T08:10:13;3.67;;;3.47;;
4808;SDS011;2418;49.930;8.606;2023-08-24T08:12:42;6.93;;;3.40;;
4808;SDS011;2418;49.930;8.606;2023-08-24T08:15:08;3.90;;;3.50;;
4808;SDS011;2418;49.930;8.606;2023-08-24T08:17:34;5.45;;;3.63;;
4808;SDS011;2418;49.930;8.606;2023-08-24T08:20:00;6.60;;;3.78;;
4808;SDS011;2418;49.930;8.606;2023-08-24T08:22:27;4.10;;;3.90;;
4808;SDS011;2418;49.930;8.606;2023-08-24T08:24:54;4.25;;;3.95;;
4808;SDS011;2418;49.930;8.606;2023-08-24T08:27:21;4.50;;;4.20;;
4808;SDS011;2418;49.930;8.606;2023-08-24T08:29:47;4.30;;;3.85;;
4808;SDS011;2418;49.930;8.606;2023-08-24T08:32:13;4.70;;;3.50;;
4808;SDS011;2418;49.930;8.606;2023-08-24T08:34:39;4.03;;;3.72;;
4808;SDS011;2418;49.930;8.606;2023-08-24T08:37:04;4.67;;;4.37;;
4808;SDS011;2418;49.930;8.606;2023-08-24T08:39:32;3.83;;;3.63;;
4808;SDS011;2418;49.930;8.606;2023-08-24T08:41:58;4.30;;;3.70;;
4808;SDS011;2418;49.930;8.606;2023-08-24T08:44:26;7.72;;;3.70;;
4808;SDS011;2418;49.930;8.606;2023-08-24T08:46:57;4.60;;;3.72;;
4808;SDS011;2418;49.930;8.606;2023-08-24T08:49:23;3.22;;;3.03;;
4808;SDS011;2418;49.930;8.606;2023-08-24T08:51:49;7.60;;;3.70;;
4808;SDS011;2418;49.930;8.606;2023-08-24T08:54:16;4.65;;;3.53;;
4808;SDS011;2418;49.930;8.606;2023-08-24T08:56:42;3.95;;;3.65;;
4808;SDS011;2418;49.930;8.606;2023-08-24T08:59:09;3.20;;;3.00;;
4808;SDS011;2418;49.930;8.606;2023-08-24T09:01:37;8.63;;;3.65;;
4808;SDS011;2418;49.930;8.606;2023-08-24T09:04:03;2.90;;;2.80;;
4808;SDS011;2418;49.930;8.606;2023-08-24T09:06:31;5.25;;;3.63;;
4808;SDS011;2418;49.930;8.606;2023-08-24T09:08:57;3.30;;;3.20;;
4808;SDS011;2418;49.930;8.606;2023-08-24T09:11:23;2.90;;;2.80;;
4808;SDS011;2418;49.930;8.606;2023-08-24T09:13:49;6.50;;;3.40;;
4808;SDS011;2418;49.930;8.606;2023-08-24T09:16:15;2.95;;;2.85;;
4808;SDS011;2418;49.930;8.606;2023-08-24T09:18:51;3.10;;;2.90;;
4808;SDS011;2418;49.930;8.606;2023-08-24T09:21:17;3.85;;;3.53;;
4808;SDS011;2418;49.930;8.606;2023-08-24T09:23:43;3.90;;;3.70;;
4808;SDS011;2418;49.930;8.606;2023-08-24T09:26:11;4.50;;;3.10;;
4808;SDS011;2418;49.930;8.606;2023-08-24T09:28:37;3.90;;;3.60;;
4808;SDS011;2418;49.930;8.606;2023-08-24T09:31:04;4.00;;;3.70;;
4808;SDS011;2418;49.930;8.606;2023-08-24T09:33:34;5.50;;;3.60;;
4808;SDS011;2418;49.930;8.606;2023-08-24T09:36:05;7.60;;;3.75;;
4808;SDS011;2418;49.930;8.606;2023-08-24T09:38:32;4.50;;;4.10;;
4808;SDS011;2418;49.930;8.606;2023-08-24T09:41:01;3.60;;;3.50;;
4808;SDS011;2418;49.930;8.606;2023-08-24T09:43:29;3.90;;;3.50;;
4808;SDS011;2418;49.930;8.606;2023-08-24T09:45:56;3.35;;;3.25;;
4808;SDS011;2418;49.930;8.606;2023-08-24T09:48:28;3.80;;;3.60;;
4808;SDS011;2418;49.930;8.606;2023-08-24T09:50:57;4.15;;;3.40;;
4808;SDS011;2418;49.930;8.606;2023-08-24T09:53:24;4.55;;;3.97;;
4808;SDS011;2418;49.930;8.606;2023-08-24T09:55:54;4.60;;;3.78;;
4808;SDS011;2418;49.930;8.606;2023-08-24T09:58:23;8.43;;;3.70;;
4808;SDS011;2418;49.930;8.606;2023-08-24T10:00:50;3.23;;;3.13;;
4808;SDS011;2418;49.930;8.606;2023-08-24T10:03:16;3.90;;;3.60;;
4808;SDS011;2418;49.930;8.606;2023-08-24T10:05:50;3.78;;;3.50;;
4808;SDS011;2418;49.930;8.606;2023-08-24T10:08:21;4.00;;;3.60;;
4808;SDS011;2418;49.930;8.606;2023-08-24T10:10:47;3.90;;;3.60;;
4808;SDS011;2418;49.930;8.606;2023-08-24T10:13:43;3.50;;;3.20;;
4808;SDS011;2418;49.930;8.606;2023-08-24T10:16:06;3.80;;;3.33;;
4808;SDS011;2418;49.930;8.606;2023-08-24T10:18:33;3.80;;;3.60;;
4808;SDS011;2418;49.930;8.606;2023-08-24T10:20:59;4.20;;;3.70;;
4808;SDS011;2418;49.930;8.606;2023-08-24T10:23:27;3.72;;;3.53;;
4808;SDS011;2418;49.930;8.606;2023-08-24T10:25:54;5.75;;;3.38;;
4808;SDS011;2418;49.930;8.606;2023-08-24T10:28:21;8.20;;;3.40;;
4808;SDS011;2418;49.930;8.606;2023-08-24T10:30:50;8.27;;;3.67;;
4808;SDS011;2418;49.930;8.606;2023-08-24T10:33:17;3.88;;;2.70;;
4808;SDS011;2418;49.930;8.606;2023-08-24T10:35:44;3.38;;;3.10;;
4808;SDS011;2418;49.930;8.606;2023-08-24T10:38:27;3.20;;;3.10;;
4808;SDS011;2418;49.930;8.606;2023-08-24T10:40:54;3.20;;;2.90;;
4808;SDS011;2418;49.930;8.606;2023-08-24T10:43:22;2.92;;;2.72;;
4808;SDS011;2418;49.930;8.606;2023-08-24T10:45:58;5.75;;;2.97;;
4808;SDS011;2418;49.930;8.606;2023-08-24T10:48:25;3.67;;;3.10;;
4808;SDS011;2418;49.930;8.606;2023-08-24T10:54:09;2.85;;;2.75;;
4808;SDS011;2418;49.930;8.606;2023-08-24T10:56:39;3.20;;;3.00;;
4808;SDS011;2418;49.930;8.606;2023-08-24T10:59:12;3.58;;;3.30;;
4808;SDS011;2418;49.930;8.606;2023-08-24T11:01:39;5.80;;;3.30;;
4808;SDS011;2418;49.930;8.606;2023-08-24T11:04:05;3.60;;;2.63;;
4808;SDS011;2418;49.930;8.606;2023-08-24T11:06:33;2.80;;;2.60;;
4808;SDS011;2418;49.930;8.606;2023-08-24T11:09:09;3.20;;;2.80;;
4808;SDS011;2418;49.930;8.606;2023-08-24T11:11:42;2.80;;;2.60;;
4808;SDS011;2418;49.930;8.606;2023-08-24T11:14:14;2.90;;;2.60;;
4808;SDS011;2418;49.930;8.606;2023-08-24T11:16:56;2.75;;;2.65;;
4808;SDS011;2418;49.930;8.606;2023-08-24T11:19:22;4.70;;;3.30;;
4808;SDS011;2418;49.930;8.606;2023-08-24T11:21:48;2.88;;;2.60;;
4808;SDS011;2418;49.930;8.606;2023-08-24T11:24:16;2.55;;;2.45;;
4808;SDS011;2418;49.930;8.606;2023-08-24T11:26:46;3.10;;;3.00;;
4808;SDS011;2418;49.930;8.606;2023-08-24T11:29:13;2.30;;;2.20;;
4808;SDS011;2418;49.930;8.606;2023-08-24T11:31:40;3.13;;;2.90;;
4808;SDS011;2418;49.930;8.606;2023-08-24T11:34:06;2.90;;;2.70;;
4808;SDS011;2418;49.930;8.606;2023-08-24T11:39:28;3.80;;;2.60;;
4808;SDS011;2418;49.930;8.606;2023-08-24T11:42:01;2.92;;;2.20;;
4808;SDS011;2418;49.930;8.606;2023-08-24T11:44:28;3.97;;;2.78;;
4808;SDS011;2418;49.930;8.606;2023-08-24T11:46:57;2.50;;;2.40;;
4808;SDS011;2418;49.930;8.606;2023-08-24T11:49:24;5.88;;;3.15;;
4808;SDS011;2418;49.930;8.606;2023-08-24T11:51:50;2.75;;;2.65;;
4808;SDS011;2418;49.930;8.606;2023-08-24T11:54:20;2.97;;;2.75;;
4808;SDS011;2418;49.930;8.606;2023-08-24T11:56:46;3.08;;;2.38;;
4808;SDS011;2418;49.930;8.606;2023-08-24T11:59:12;3.00;;;2.60;;
4808;SDS011;2418;49.930;8.606;2023-08-24T12:01:40;7.30;;;2.50;;
4808;SDS011;2418;49.930;8.606;2023-08-24T12:04:08;3.30;;;2.25;;
4808;SDS011;2418;49.930;8.606;2023-08-24T12:06:34;3.03;;;2.90;;
4808;SDS011;2418;49.930;8.606;2023-08-24T12:09:01;2.63;;;2.53;;
4808;SDS011;2418;49.930;8.606;2023-08-24T12:11:30;2.50;;;2.40;;
4808;SDS011;2418;49.930;8.606;2023-08-24T12:14:00;2.65;;;2.55;;
4808;SDS011;2418;49.930;8.606;2023-08-24T12:16:27;3.20;;;2.60;;
4808;SDS011;2418;49.930;8.606;2023-08-24T12:18:57;2.90;;;2.67;;
4808;SDS011;2418;49.930;8.606;2023-08-24T12:21:31;2.40;;;2.30;;
4808;SDS011;2418;49.930;8.606;2023-08-24T12:24:03;4.47;;;2.67;;
4808;SDS011;2418;49.930;8.606;2023-08-24T12:26:31;2.80;;;2.50;;
4808;SDS011;2418;49.930;8.606;2023-08-24T12:29:01;3.00;;;2.80;;
4808;SDS011;2418;49.930;8.606;2023-08-24T12:31:29;2.50;;;2.50;;
4808;SDS011;2418;49.930;8.606;2023-08-24T12:34:02;3.38;;;3.15;;
4808;SDS011;2418;49.930;8.606;2023-08-24T12:36:34;7.03;;;2.50;;
4808;SDS011;2418;49.930;8.606;2023-08-24T12:39:01;2.50;;;2.40;;
4808;SDS011;2418;49.930;8.606;2023-08-24T12:41:29;3.30;;;3.00;;
4808;SDS011;2418;49.930;8.606;2023-08-24T12:43:55;2.83;;;2.63;;
4808;SDS011;2418;49.930;8.606;2023-08-24T12:46:21;2.73;;;2.53;;
4808;SDS011;2418;49.930;8.606;2023-08-24T12:48:47;2.55;;;2.55;;
4808;SDS011;2418;49.930;8.606;2023-08-24T12:51:13;5.78;;;3.83;;
4808;SDS011;2418;49.930;8.606;2023-08-24T12:53:39;3.10;;;2.80;;
4808;SDS011;2418;49.930;8.606;2023-08-24T12:56:06;6.10;;;2.42;;
4808;SDS011;2418;49.930;8.606;2023-08-24T12:58:32;2.95;;;2.85;;
4808;SDS011;2418;49.930;8.606;2023-08-24T13:00:59;3.00;;;2.90;;
4808;SDS011;2418;49.930;8.606;2023-08-24T13:03:25;3.13;;;3.00;;
4808;SDS011;2418;49.930;8.606;2023-08-24T13:05:51;2.55;;;2.38;;
4808;SDS011;2418;49.930;8.606;2023-08-24T13:08:17;3.00;;;2.80;;
4808;SDS011;2418;49.930;8.606;2023-08-24T13:10:43;3.30;;;3.20;;
4808;SDS011;2418;49.930;8.606;2023-08-24T13:13:09;2.75;;;2.53;;
4808;SDS011;2418;49.930;8.606;2023-08-24T13:15:35;2.50;;;2.40;;
4808;SDS011;2418;49.930;8.606;2023-08-24T13:18:01;2.63;;;2.40;;
4808;SDS011;2418;49.930;8.606;2023-08-24T13:20:28;2.40;;;2.40;;
4808;SDS011;2418;49.930;8.606;2023-08-24T13:22:54;2.90;;;2.80;;
4808;SDS011;2418;49.930;8.606;2023-08-24T13:25:20;2.78;;;2.67;;
4808;SDS011;2418;49.930;8.606;2023-08-24T13:27:47;3.10;;;2.90;;
4808;SDS011;2418;49.930;8.606;2023-08-24T13:30:13;2.80;;;2.60;;
4808;SDS011;2418;49.930;8.606;2023-08-24T13:32:39;2.70;;;2.60;;
4808;SDS011;2418;49.930;8.606;2023-08-24T13:35:05;3.00;;;2.72;;
4808;SDS011;2418;49.930;8.606;2023-08-24T13:37:31;3.95;;;2.70;;
4808;SDS011;2418;49.930;8.606;2023-08-24T13:39:58;3.08;;;2.78;;
4808;SDS011;2418;49.930;8.606;2023-08-24T13:42:24;3.10;;;2.70;;
4808;SDS011;2418;49.930;8.606;2023-08-24T13:44:50;4.00;;;2.33;;
4808;SDS011;2418;49.930;8.606;2023-08-24T13:47:16;3.33;;;2.58;;
4808;SDS011;2418;49.930;8.606;2023-08-24T13:49:43;3.10;;;2.80;;
4808;SDS011;2418;49.930;8.606;2023-08-24T13:52:09;2.90;;;2.70;;
4808;SDS011;2418;49.930;8.606;2023-08-24T13:54:34;5.50;;;2.60;;
4808;SDS011;2418;49.930;8.606;2023-08-24T13:57:01;6.78;;;3.00;;
4808;SDS011;2418;49.930;8.606;2023-08-24T13:59:28;3.00;;;2.80;;
4808;SDS011;2418;49.930;8.606;2023-08-24T14:01:54;3.88;;;2.70;;
4808;SDS011;2418;49.930;8.606;2023-08-24T14:04:20;2.60;;;2.60;;
4808;SDS011;2418;49.930;8.606;2023-08-24T14:06:46;2.88;;;2.78;;
4808;SDS011;2418;49.930;8.606;2023-08-24T14:09:13;3.10;;;3.00;;
4808;SDS011;2418;49.930;8.606;2023-08-24T14:11:39;3.10;;;2.80;;
4808;SDS011;2418;49.930;8.606;2023-08-24T14:14:06;3.20;;;3.00;;
4808;SDS011;2418;49.930;8.606;2023-08-24T14:16:32;3.15;;;2.85;;
4808;SDS011;2418;49.930;8.606;2023-08-24T14:18:58;2.85;;;2.85;;
4808;SDS011;2418;49.930;8.606;2023-08-24T14:21:24;2.58;;;2.47;;
4808;SDS011;2418;49.930;8.606;2023-08-24T14:23:50;2.90;;;2.80;;
4808;SDS011;2418;49.930;8.606;2023-08-24T14:26:16;3.00;;;2.60;;
4808;SDS011;2418;49.930;8.606;2023-08-24T14:28:48;3.00;;;2.70;;
4808;SDS011;2418;49.930;8.606;2023-08-24T14:31:15;3.08;;;2.97;;
4808;SDS011;2418;49.930;8.606;2023-08-24T14:33:41;3.30;;;3.20;;
4808;SDS011;2418;49.930;8.606;2023-08-24T14:36:07;3.97;;;3.60;;
4808;SDS011;2418;49.930;8.606;2023-08-24T14:38:33;4.53;;;3.05;;
4808;SDS011;2418;49.930;8.606;2023-08-24T14:40:59;4.55;;;2.97;;
4808;SDS011;2418;49.930;8.606;2023-08-24T14:43:26;3.35;;;3.05;;
4808;SDS011;2418;49.930;8.606;2023-08-24T14:45:52;3.30;;;3.20;;
4808;SDS011;2418;49.930;8.606;2023-08-24T14:48:18;3.30;;;3.10;;
4808;SDS011;2418;49.930;8.606;2023-08-24T14:50:43;2.93;;;2.60;;
4808;SDS011;2418;49.930;8.606;2023-08-24T14:53:11;6.30;;;3.70;;
4808;SDS011;2418;49.930;8.606;2023-08-24T14:55:37;3.13;;;3.03;;
4808;SDS011;2418;49.930;8.606;2023-08-24T14:58:04;3.75;;;3.47;;
4808;SDS011;2418;49.930;8.606;2023-08-24T15:00:30;3.30;;;3.10;;
4808;SDS011;2418;49.930;8.606;2023-08-24T15:02:56;3.90;;;3.63;;
4808;SDS011;2418;49.930;8.606;2023-08-24T15:05:22;3.75;;;3.55;;
4808;SDS011;2418;49.930;8.606;2023-08-24T15:07:49;4.87;;;3.10;;
4808;SDS011;2418;49.930;8.606;2023-08-24T15:10:15;5.97;;;3.53;;
4808;SDS011;2418;49.930;8.606;2023-08-24T15:12:47;4.50;;;4.00;;
4808;SDS011;2418;49.930;8.606;2023-08-24T15:15:13;4.95;;;4.00;;
4808;SDS011;2418;49.930;8.606;2023-08-24T15:17:42;8.90;;;3.72;;
4808;SDS011;2418;49.930;8.606;2023-08-24T15:20:12;18.00;;;7.30;;
4808;SDS011;2418;49.930;8.606;2023-08-24T15:22:39;5.45;;;4.88;;
4808;SDS011;2418;49.930;8.606;2023-08-24T15:25:05;4.80;;;4.40;;